createdAt,value
2023-05-01T00:01:32.163Z,43.94
2023-05-01T00:03:59.766Z,44.56
2023-05-01T00:06:26.432Z,44.38
2023-05-01T00:08:53.485Z,44.27
2023-05-01T00:11:19.981Z,44.09
2023-05-01T00:13:46.693Z,44.11
2023-05-01T00:16:14.807Z,43.96
2023-05-01T00:18:41.387Z,43.97
2023-05-01T00:21:07.845Z,43.65
2023-05-01T00:23:34.369Z,43.55
2023-05-01T00:26:01.031Z,43.11
2023-05-01T00:28:27.478Z,42.87
2023-05-01T00:30:53.885Z,42.94
2023-05-01T00:33:20.822Z,43.20
2023-05-01T00:35:47.284Z,43.55
2023-05-01T00:38:13.750Z,43.25
2023-05-01T00:40:44.494Z,43.25
2023-05-01T00:43:12.100Z,43.14
2023-05-01T00:45:40.468Z,42.94
2023-05-01T00:48:07.169Z,42.93
2023-05-01T00:50:33.957Z,42.64
2023-05-01T00:53:00.504Z,42.43
2023-05-01T00:55:27.471Z,42.32
2023-05-01T00:57:55.256Z,42.22
2023-05-01T01:00:24.479Z,42.21
2023-05-01T01:02:52.019Z,42.20
2023-05-01T01:05:19.026Z,42.52
2023-05-01T01:07:52.218Z,42.58
2023-05-01T01:10:57.204Z,42.64
2023-05-01T01:13:26.693Z,42.83
2023-05-01T01:16:10.152Z,42.63
2023-05-01T01:18:41.397Z,42.61
2023-05-01T01:21:17.052Z,42.82
2023-05-01T01:23:49.551Z,42.79
2023-05-01T01:26:53.801Z,42.87
2023-05-01T01:29:44.376Z,42.99
2023-05-01T01:32:31.657Z,43.15
2023-05-01T01:35:04.681Z,43.64
2023-05-01T01:37:43.103Z,43.60
2023-05-01T01:40:13.978Z,43.46
2023-05-01T01:42:40.994Z,43.25
2023-05-01T01:45:12.963Z,42.84
2023-05-01T01:47:41.801Z,43.16
2023-05-01T01:50:10.228Z,42.88
2023-05-01T01:52:38.942Z,43.00
2023-05-01T01:55:07.795Z,42.80
2023-05-01T01:57:36.896Z,42.65
2023-05-01T02:00:08.819Z,42.59
2023-05-01T02:02:37.842Z,42.86
2023-05-01T02:05:05.827Z,43.13
2023-05-01T02:07:33.044Z,43.03
2023-05-01T02:10:01.558Z,42.96
2023-05-01T02:12:29.010Z,43.33
2023-05-01T02:14:58.099Z,43.32
2023-05-01T02:17:25.105Z,43.44
2023-05-01T02:19:53.235Z,43.67
2023-05-01T02:22:21.638Z,43.99
2023-05-01T02:24:48.952Z,43.76
2023-05-01T02:27:25.755Z,43.70
2023-05-01T02:29:53.676Z,43.37
2023-05-01T02:32:20.434Z,43.23
2023-05-01T02:34:47.081Z,43.33
2023-05-01T02:37:13.623Z,43.37
2023-05-01T02:39:40.799Z,43.24
2023-05-01T02:42:09.604Z,43.12
2023-05-01T02:44:47.259Z,43.20
2023-05-01T02:47:16.794Z,43.40
2023-05-01T02:49:44.845Z,43.21
2023-05-01T02:52:11.797Z,43.23
2023-05-01T02:54:38.964Z,43.13
2023-05-01T02:57:05.603Z,43.39
2023-05-01T02:59:33.364Z,43.17
2023-05-01T03:01:59.917Z,43.30
2023-05-01T03:04:27.091Z,43.19
2023-05-01T03:06:54.362Z,43.22
2023-05-01T03:09:22.023Z,43.26
2023-05-01T03:11:48.840Z,43.16
2023-05-01T03:14:15.393Z,43.13
2023-05-01T03:16:42.082Z,43.36
2023-05-01T03:19:08.780Z,43.68
2023-05-01T03:21:35.447Z,43.63
2023-05-01T03:24:01.911Z,42.98
2023-05-01T03:26:28.681Z,44.58
2023-05-01T03:28:55.161Z,43.86
2023-05-01T03:31:21.887Z,44.14
2023-05-01T03:33:48.614Z,44.37
2023-05-01T03:36:16.000Z,44.33
2023-05-01T03:38:42.453Z,44.32
2023-05-01T03:41:09.304Z,44.17
2023-05-01T03:43:36.012Z,44.46
2023-05-01T03:46:02.534Z,44.15
2023-05-01T03:48:29.016Z,44.28
2023-05-01T03:50:55.627Z,44.04
2023-05-01T03:53:22.433Z,43.62
2023-05-01T03:55:49.154Z,44.20
2023-05-01T03:58:15.840Z,43.99
2023-05-01T04:00:42.981Z,44.02
2023-05-01T04:03:09.629Z,44.46
2023-05-01T04:05:36.727Z,44.46
2023-05-01T04:08:04.346Z,44.48
2023-05-01T04:10:30.954Z,44.57
2023-05-01T04:12:57.438Z,44.58
2023-05-01T04:15:23.943Z,44.21
2023-05-01T04:17:51.069Z,43.95
2023-05-01T04:20:19.367Z,44.17
2023-05-01T04:22:45.898Z,43.60
2023-05-01T04:25:12.342Z,43.35
2023-05-01T04:27:38.789Z,43.80
2023-05-01T04:30:06.190Z,43.77
2023-05-01T04:32:32.892Z,43.41
2023-05-01T04:34:59.909Z,43.52
2023-05-01T04:37:26.475Z,43.37
2023-05-01T04:39:53.964Z,42.82
2023-05-01T04:42:20.788Z,43.51
2023-05-01T04:44:47.402Z,43.00
2023-05-01T04:47:14.036Z,43.27
2023-05-01T04:49:40.718Z,43.30
2023-05-01T04:52:07.170Z,43.73
2023-05-01T04:54:33.641Z,43.30
2023-05-01T04:57:00.119Z,43.05
2023-05-01T04:59:26.742Z,43.66
2023-05-01T05:01:53.228Z,43.57
2023-05-01T05:04:19.846Z,43.48
2023-05-01T05:06:46.526Z,43.26
2023-05-01T05:09:13.349Z,43.02
2023-05-01T05:11:39.864Z,43.06
2023-05-01T05:14:06.412Z,42.66
2023-05-01T05:16:33.235Z,42.46
2023-05-01T05:18:59.746Z,42.15
2023-05-01T05:21:26.424Z,42.01
2023-05-01T05:23:53.338Z,41.86
2023-05-01T05:26:19.890Z,41.71
2023-05-01T05:28:46.556Z,41.58
2023-05-01T05:31:13.044Z,41.56
2023-05-01T05:33:39.488Z,41.40
2023-05-01T05:36:06.695Z,41.36
2023-05-01T05:38:33.200Z,41.26
2023-05-01T05:41:00.870Z,42.36
2023-05-01T05:43:28.241Z,41.84
2023-05-01T05:45:58.865Z,41.67
2023-05-01T05:48:25.915Z,42.17
2023-05-01T05:50:52.651Z,41.98
2023-05-01T05:53:20.038Z,42.02
2023-05-01T05:55:47.401Z,42.98
2023-05-01T05:58:19.799Z,43.01
2023-05-01T06:00:48.268Z,42.89
2023-05-01T06:03:16.203Z,42.64
2023-05-01T06:05:43.612Z,42.25
2023-05-01T06:08:10.486Z,42.58
2023-05-01T06:10:39.465Z,42.47
2023-05-01T06:13:13.640Z,42.51
2023-05-01T06:15:41.336Z,42.05
2023-05-01T06:18:08.128Z,41.64
2023-05-01T06:20:34.815Z,41.72
2023-05-01T06:23:01.274Z,40.04
2023-05-01T06:25:27.908Z,39.19
2023-05-01T06:27:54.406Z,38.43
2023-05-01T06:30:21.955Z,37.69
2023-05-01T06:32:48.947Z,37.61
2023-05-01T06:35:15.541Z,37.40
2023-05-01T06:37:42.016Z,37.77
2023-05-01T06:40:09.796Z,37.34
2023-05-01T06:42:37.190Z,36.71
2023-05-01T06:45:03.893Z,37.02
2023-05-01T06:47:30.501Z,36.90
2023-05-01T06:49:57.393Z,37.87
2023-05-01T06:52:24.867Z,37.78
2023-05-01T06:54:51.379Z,37.00
2023-05-01T06:57:17.843Z,37.12
2023-05-01T06:59:44.369Z,37.46
2023-05-01T07:02:10.947Z,37.46
2023-05-01T07:04:37.874Z,37.52
2023-05-01T07:07:04.399Z,37.66
2023-05-01T07:09:31.248Z,37.13
2023-05-01T07:11:58.616Z,36.83
2023-05-01T07:14:25.080Z,39.00
2023-05-01T07:16:51.603Z,38.10
2023-05-01T07:19:18.512Z,37.20
2023-05-01T07:21:45.011Z,36.30
2023-05-01T07:24:12.418Z,36.03
2023-05-01T07:26:39.202Z,36.84
2023-05-01T07:29:06.057Z,36.51
2023-05-01T07:31:32.704Z,35.83
2023-05-01T07:33:59.159Z,35.27
2023-05-01T07:36:25.601Z,34.61
2023-05-01T07:38:52.425Z,34.23
2023-05-01T07:41:18.849Z,33.52
2023-05-01T07:43:48.143Z,33.23
2023-05-01T07:46:15.723Z,33.41
2023-05-01T07:48:42.340Z,32.64
2023-05-01T07:51:08.818Z,32.22
2023-05-01T07:53:35.311Z,31.70
2023-05-01T07:56:07.404Z,31.45
2023-05-01T07:58:34.393Z,31.09
2023-05-01T08:01:01.004Z,30.20
2023-05-01T08:03:31.171Z,29.92
2023-05-01T08:05:58.124Z,29.70
2023-05-01T08:08:24.770Z,29.89
2023-05-01T08:10:51.670Z,30.14
2023-05-01T08:13:18.756Z,29.78
2023-05-01T08:15:46.842Z,29.31
2023-05-01T08:18:19.543Z,29.06
2023-05-01T08:20:49.462Z,28.80
2023-05-01T08:23:17.324Z,28.52
2023-05-01T08:25:46.773Z,28.09
2023-05-01T08:28:16.563Z,27.86
2023-05-01T08:30:44.426Z,27.34
2023-05-01T08:33:11.305Z,26.70
2023-05-01T08:35:37.772Z,26.85
2023-05-01T08:38:04.365Z,27.62
2023-05-01T08:40:33.682Z,28.12
2023-05-01T08:43:01.377Z,28.14
2023-05-01T08:45:30.764Z,27.29
2023-05-01T08:47:58.465Z,27.13
2023-05-01T08:50:25.814Z,26.76
2023-05-01T08:52:53.212Z,27.22
2023-05-01T08:55:20.984Z,26.86
2023-05-01T08:57:48.691Z,26.12
2023-05-01T09:00:19.448Z,25.19
2023-05-01T09:02:48.374Z,25.01
2023-05-01T09:05:19.784Z,24.71
2023-05-01T09:07:47.099Z,24.87
2023-05-01T09:10:15.613Z,24.43
2023-05-01T09:12:44.879Z,24.75
2023-05-01T09:15:12.221Z,24.35
2023-05-01T09:17:38.769Z,23.46
2023-05-01T09:20:07.289Z,22.58
2023-05-01T09:22:34.279Z,21.33
2023-05-01T09:25:01.389Z,20.70
2023-05-01T09:27:29.651Z,18.25
2023-05-01T09:29:56.447Z,16.81
2023-05-01T09:32:30.520Z,17.71
2023-05-01T09:35:11.462Z,16.66
2023-05-01T09:37:37.948Z,15.06
2023-05-01T09:40:11.607Z,14.20
2023-05-01T09:42:40.121Z,13.94
2023-05-01T09:45:13.618Z,15.75
2023-05-01T09:47:41.482Z,15.28
2023-05-01T09:50:09.044Z,16.35
2023-05-01T09:52:35.685Z,15.48
2023-05-01T09:55:11.465Z,14.98
2023-05-01T09:57:38.297Z,15.26
2023-05-01T10:00:08.428Z,15.62
2023-05-01T10:02:35.198Z,15.26
2023-05-01T10:05:02.462Z,15.67
2023-05-01T10:07:29.401Z,15.22
2023-05-01T10:09:57.544Z,14.92
2023-05-01T10:12:28.343Z,13.82
2023-05-01T10:14:56.874Z,11.81
2023-05-01T10:17:24.004Z,10.46
2023-05-01T10:19:53.535Z,8.84
2023-05-01T10:22:20.018Z,7.63
2023-05-01T10:24:46.796Z,6.51
2023-05-01T10:27:13.389Z,6.42
2023-05-01T10:29:43.135Z,6.25
2023-05-01T10:32:09.725Z,7.07
2023-05-01T10:34:38.909Z,8.02
2023-05-01T10:37:12.858Z,7.73
2023-05-01T10:39:39.531Z,8.29
2023-05-01T10:42:16.600Z,8.47
2023-05-01T10:44:43.504Z,9.02
2023-05-01T10:47:42.987Z,9.25
2023-05-01T10:50:11.423Z,9.29
2023-05-01T10:53:12.062Z,8.82
2023-05-01T10:55:43.458Z,9.46
2023-05-01T10:58:14.397Z,10.23
2023-05-01T11:00:41.314Z,10.53
2023-05-01T11:03:23.421Z,11.13
2023-05-01T11:06:05.372Z,11.68
2023-05-01T11:08:33.470Z,11.46
2023-05-01T11:11:21.864Z,13.58
2023-05-01T11:14:04.362Z,16.67
2023-05-01T11:16:35.306Z,16.04
2023-05-01T11:19:01.830Z,14.40
2023-05-01T11:21:34.173Z,13.57
2023-05-01T11:24:01.560Z,13.06
2023-05-01T11:26:30.151Z,14.98
2023-05-01T11:29:00.483Z,15.82
2023-05-01T11:31:28.177Z,19.42
2023-05-01T11:33:58.914Z,20.99
2023-05-01T11:36:27.222Z,21.75
2023-05-01T11:38:59.071Z,21.24
2023-05-01T11:41:26.960Z,21.10
2023-05-01T11:43:59.587Z,21.81
2023-05-01T11:46:31.062Z,22.31
2023-05-01T11:48:59.189Z,22.12
2023-05-01T11:51:26.876Z,22.49
2023-05-01T11:54:11.062Z,22.67
2023-05-01T11:56:40.838Z,22.23
2023-05-01T11:59:18.077Z,22.25
2023-05-01T12:01:46.032Z,20.67
2023-05-01T12:04:14.779Z,19.50
2023-05-01T12:06:46.355Z,18.68
2023-05-01T12:09:17.275Z,19.88
2023-05-01T12:11:44.269Z,19.55
2023-05-01T12:14:11.335Z,20.96
2023-05-01T12:16:40.275Z,21.51
2023-05-01T12:19:07.483Z,21.62
2023-05-01T12:21:35.140Z,23.02
2023-05-01T12:24:13.003Z,24.05
2023-05-01T12:26:40.596Z,22.92
2023-05-01T12:29:08.964Z,22.14
2023-05-01T12:31:36.881Z,21.39
2023-05-01T12:34:06.069Z,21.16
2023-05-01T12:36:37.515Z,20.39
2023-05-01T12:39:07.690Z,20.10
2023-05-01T12:41:47.459Z,20.08
2023-05-01T12:44:27.702Z,21.15
2023-05-01T12:47:03.718Z,19.91
2023-05-01T12:49:31.749Z,19.96
2023-05-01T12:52:00.269Z,20.82
2023-05-01T12:54:31.642Z,20.68
2023-05-01T12:57:16.191Z,21.72
2023-05-01T12:59:44.416Z,21.83
2023-05-01T13:02:16.290Z,23.13
2023-05-01T13:04:49.239Z,23.42
2023-05-01T13:07:18.722Z,22.27
2023-05-01T13:09:56.307Z,22.60
2023-05-01T13:12:24.118Z,22.51
2023-05-01T13:14:51.387Z,22.46
2023-05-01T13:17:31.970Z,23.73
2023-05-01T13:20:03.995Z,24.12
2023-05-01T13:22:32.657Z,23.78
2023-05-01T13:24:59.479Z,24.59
2023-05-01T13:27:26.120Z,22.61
2023-05-01T13:29:58.060Z,23.31
2023-05-01T13:32:25.789Z,22.89
2023-05-01T13:34:54.181Z,23.69
2023-05-01T13:37:21.385Z,22.71
2023-05-01T13:39:47.904Z,22.60
2023-05-01T13:42:27.563Z,22.87
2023-05-01T13:44:56.258Z,22.11
2023-05-01T13:47:27.338Z,23.35
2023-05-01T13:49:54.287Z,23.79
2023-05-01T13:52:21.018Z,24.78
2023-05-01T13:54:48.473Z,24.71
2023-05-01T13:57:18.560Z,26.68
2023-05-01T13:59:47.121Z,25.56
2023-05-01T14:02:23.399Z,25.38
2023-05-01T14:04:50.055Z,26.02
2023-05-01T14:07:19.066Z,25.52
2023-05-01T14:09:55.936Z,25.16
2023-05-01T14:12:26.718Z,24.24
2023-05-01T14:14:53.487Z,24.32
2023-05-01T14:17:25.868Z,25.33
2023-05-01T14:19:52.664Z,24.49
2023-05-01T14:22:19.401Z,24.43
2023-05-01T14:24:46.043Z,23.20
2023-05-01T14:27:14.734Z,24.08
2023-05-01T14:29:44.371Z,23.54
2023-05-01T14:32:10.988Z,22.74
2023-05-01T14:34:41.056Z,24.11
2023-05-01T14:37:07.583Z,25.65
2023-05-01T14:39:34.134Z,24.81
2023-05-01T14:42:00.631Z,24.81
2023-05-01T14:44:30.568Z,24.93
2023-05-01T14:46:58.529Z,23.85
2023-05-01T14:49:26.007Z,24.31
2023-05-01T14:51:53.515Z,25.87
2023-05-01T14:54:21.214Z,25.98
2023-05-01T14:56:48.769Z,27.09
2023-05-01T14:59:16.300Z,27.55
2023-05-01T15:01:44.039Z,28.41
2023-05-01T15:04:11.768Z,28.52
2023-05-01T15:06:38.632Z,28.49
2023-05-01T15:09:05.435Z,28.97
2023-05-01T15:11:32.076Z,29.01
2023-05-01T15:13:58.607Z,29.17
2023-05-01T15:16:25.248Z,29.95
2023-05-01T15:18:52.008Z,30.05
2023-05-01T15:21:18.532Z,29.75
2023-05-01T15:23:46.355Z,30.13
2023-05-01T15:26:13.361Z,29.60
2023-05-01T15:28:39.934Z,29.24
2023-05-01T15:31:06.999Z,28.71
2023-05-01T15:33:33.821Z,28.16
2023-05-01T15:36:00.484Z,28.24
2023-05-01T15:38:28.246Z,27.56
2023-05-01T15:40:54.806Z,27.88
2023-05-01T15:43:22.354Z,27.55
2023-05-01T15:45:49.484Z,28.08
2023-05-01T15:48:16.382Z,27.62
2023-05-01T15:50:43.090Z,27.83
2023-05-01T15:53:09.784Z,28.20
2023-05-01T15:55:36.779Z,28.29
2023-05-01T15:58:03.560Z,28.47
2023-05-01T16:00:30.268Z,28.70
2023-05-01T16:02:57.057Z,28.41
2023-05-01T16:05:24.826Z,27.87
2023-05-01T16:07:55.114Z,28.59
2023-05-01T16:10:22.419Z,28.51
2023-05-01T16:12:50.563Z,28.25
2023-05-01T16:15:17.200Z,27.57
2023-05-01T16:17:44.743Z,29.28
2023-05-01T16:20:13.097Z,32.97
2023-05-01T16:22:41.215Z,40.70
2023-05-01T16:25:09.396Z,42.04
2023-05-01T16:27:41.126Z,45.38
2023-05-01T16:30:09.192Z,47.85
2023-05-01T16:32:36.075Z,48.20
2023-05-01T16:35:05.334Z,51.78
2023-05-01T16:37:33.941Z,53.96
2023-05-01T16:40:00.982Z,54.00
2023-05-01T16:42:27.796Z,54.59
2023-05-01T16:44:54.320Z,55.35
2023-05-01T16:47:20.888Z,54.20
2023-05-01T16:49:47.722Z,56.06
2023-05-01T16:52:15.609Z,58.99
2023-05-01T16:54:42.312Z,59.61
2023-05-01T16:57:08.871Z,61.56
2023-05-01T16:59:37.261Z,63.62
2023-05-01T17:02:04.833Z,66.21
2023-05-01T17:04:31.682Z,67.12
2023-05-01T17:06:58.224Z,68.98
2023-05-01T17:09:24.971Z,69.01
2023-05-01T17:11:51.610Z,70.69
2023-05-01T17:14:18.989Z,69.00
2023-05-01T17:16:46.306Z,68.72
2023-05-01T17:19:14.364Z,67.42
2023-05-01T17:21:41.284Z,66.94
2023-05-01T17:24:07.709Z,67.71
2023-05-01T17:26:34.241Z,67.55
2023-05-01T17:29:02.892Z,68.80
2023-05-01T17:31:29.730Z,68.42
2023-05-01T17:33:56.405Z,67.08
2023-05-01T17:36:23.770Z,66.75
2023-05-01T17:38:50.396Z,66.07
2023-05-01T17:41:17.236Z,67.41
2023-05-01T17:43:44.784Z,67.10
2023-05-01T17:46:12.426Z,67.70
2023-05-01T17:48:38.924Z,67.39
2023-05-01T17:51:05.358Z,67.22
2023-05-01T17:53:31.873Z,67.50
2023-05-01T17:55:58.355Z,67.12
2023-05-01T17:58:24.795Z,67.46
2023-05-01T18:00:51.663Z,67.27
2023-05-01T18:03:18.237Z,68.35
2023-05-01T18:05:45.026Z,69.02
2023-05-01T18:08:11.585Z,69.97
2023-05-01T18:10:38.330Z,69.35
2023-05-01T18:13:04.814Z,69.41
2023-05-01T18:15:31.250Z,69.38
2023-05-01T18:17:57.852Z,67.43
2023-05-01T18:20:24.593Z,67.27
2023-05-01T18:22:53.232Z,66.53
2023-05-01T18:25:20.113Z,65.91
2023-05-01T18:27:47.059Z,66.47
2023-05-01T18:30:13.620Z,65.66
2023-05-01T18:32:48.050Z,65.15
2023-05-01T18:35:16.729Z,65.72
2023-05-01T18:37:43.884Z,65.29
2023-05-01T18:40:11.501Z,65.40
2023-05-01T18:42:39.847Z,64.99
2023-05-01T18:45:07.127Z,66.03
2023-05-01T18:47:33.633Z,65.16
2023-05-01T18:50:00.289Z,65.35
2023-05-01T18:52:28.691Z,65.68
2023-05-01T18:54:55.257Z,65.97
2023-05-01T18:57:22.556Z,65.52
2023-05-01T18:59:49.021Z,66.29
2023-05-01T19:02:15.466Z,65.94
2023-05-01T19:04:56.029Z,66.85
2023-05-01T19:07:24.522Z,67.32
2023-05-01T19:09:51.073Z,65.94
2023-05-01T19:12:17.721Z,66.17
2023-05-01T19:14:44.308Z,67.17
2023-05-01T19:17:10.831Z,68.35
2023-05-01T19:19:37.274Z,67.13
2023-05-01T19:22:03.776Z,68.12
2023-05-01T19:24:30.334Z,66.67
2023-05-01T19:26:57.288Z,66.80
2023-05-01T19:29:23.855Z,65.79
2023-05-01T19:31:50.603Z,65.79
2023-05-01T19:34:17.051Z,65.29
2023-05-01T19:36:43.936Z,65.99
2023-05-01T19:39:10.451Z,65.67
2023-05-01T19:41:37.370Z,66.39
2023-05-01T19:44:03.939Z,65.12
2023-05-01T19:46:30.809Z,66.42
2023-05-01T19:48:57.319Z,65.43
2023-05-01T19:51:24.257Z,65.64
2023-05-01T19:53:50.861Z,65.67
2023-05-01T19:56:17.272Z,64.48
2023-05-01T19:58:43.765Z,63.20
2023-05-01T20:01:12.693Z,62.88
2023-05-01T20:03:39.321Z,62.94
2023-05-01T20:06:06.317Z,62.41
2023-05-01T20:08:33.600Z,62.90
2023-05-01T20:11:01.473Z,62.65
2023-05-01T20:13:28.128Z,62.38
2023-05-01T20:15:55.274Z,61.79
2023-05-01T20:18:22.224Z,61.67
2023-05-01T20:20:49.030Z,61.13
2023-05-01T20:23:16.893Z,60.81
2023-05-01T20:25:43.880Z,60.86
2023-05-01T20:28:12.748Z,61.20
2023-05-01T20:30:40.329Z,60.61
2023-05-01T20:33:08.108Z,60.37
2023-05-01T20:35:34.835Z,59.92
2023-05-01T20:38:02.086Z,60.58
2023-05-01T20:40:29.390Z,59.94
2023-05-01T20:42:56.677Z,59.47
2023-05-01T20:45:23.117Z,59.44
2023-05-01T20:47:49.583Z,59.37
2023-05-01T20:50:17.523Z,59.76
2023-05-01T20:52:45.802Z,59.57
2023-05-01T20:55:12.266Z,60.28
2023-05-01T20:57:40.063Z,59.29
2023-05-01T21:00:07.839Z,60.32
2023-05-01T21:02:37.770Z,59.56
2023-05-01T21:05:05.598Z,59.50
2023-05-01T21:07:32.081Z,59.84
2023-05-01T21:09:59.030Z,61.81
2023-05-01T21:12:26.644Z,62.63
2023-05-01T21:14:53.194Z,66.32
2023-05-01T21:17:19.645Z,67.27
2023-05-01T21:19:47.129Z,66.74
2023-05-01T21:22:20.409Z,68.94
2023-05-01T21:24:58.291Z,69.91
2023-05-01T21:27:26.739Z,68.87
2023-05-01T21:29:58.547Z,68.87
2023-05-01T21:32:30.654Z,68.63
2023-05-01T21:34:57.394Z,67.63
2023-05-01T21:37:24.010Z,67.03
2023-05-01T21:39:51.093Z,67.17
2023-05-01T21:42:17.711Z,66.84
2023-05-01T21:44:44.444Z,66.25
2023-05-01T21:47:11.505Z,67.36
2023-05-01T21:49:39.813Z,67.85
2023-05-01T21:52:08.637Z,66.32
2023-05-01T21:54:36.579Z,66.32
2023-05-01T21:57:05.452Z,65.78
2023-05-01T21:59:37.743Z,66.36
2023-05-01T22:02:11.196Z,67.45
2023-05-01T22:04:38.606Z,67.57
2023-05-01T22:07:05.638Z,66.43
2023-05-01T22:09:32.864Z,66.04
2023-05-01T22:11:59.340Z,65.93
2023-05-01T22:14:33.609Z,66.65
2023-05-01T22:17:07.706Z,65.96
2023-05-01T22:19:34.269Z,65.00
2023-05-01T22:22:00.815Z,65.77
2023-05-01T22:24:27.249Z,64.84
2023-05-01T22:26:53.728Z,64.72
2023-05-01T22:29:20.543Z,64.33
2023-05-01T22:31:47.042Z,64.55
2023-05-01T22:34:13.896Z,65.10
2023-05-01T22:36:40.483Z,64.52
2023-05-01T22:39:07.265Z,64.90
2023-05-01T22:41:33.862Z,65.74
2023-05-01T22:44:00.392Z,65.71
2023-05-01T22:46:27.148Z,66.51
2023-05-01T22:48:53.615Z,65.94
2023-05-01T22:51:20.109Z,66.63
2023-05-01T22:53:46.561Z,66.30
2023-05-01T22:56:13.015Z,65.92
2023-05-01T22:58:39.556Z,66.06
2023-05-01T23:01:06.059Z,65.71
2023-05-01T23:03:33.410Z,65.11
2023-05-01T23:06:01.058Z,64.45
2023-05-01T23:08:28.215Z,64.69
2023-05-01T23:10:54.738Z,64.57
2023-05-01T23:13:23.464Z,63.80
2023-05-01T23:15:50.432Z,63.26
2023-05-01T23:18:30.580Z,62.42
2023-05-01T23:20:57.187Z,62.70
2023-05-01T23:23:35.093Z,61.74
2023-05-01T23:26:01.842Z,61.23
2023-05-01T23:28:28.887Z,61.00
2023-05-01T23:31:03.427Z,61.68
2023-05-01T23:33:35.380Z,60.77
2023-05-01T23:36:01.856Z,61.49
2023-05-01T23:38:28.947Z,60.11
2023-05-01T23:40:55.396Z,59.67
2023-05-01T23:43:22.449Z,60.62
2023-05-01T23:45:49.349Z,59.67
2023-05-01T23:48:16.197Z,59.87
2023-05-01T23:50:42.895Z,59.92
2023-05-01T23:53:09.969Z,60.52
2023-05-01T23:55:38.185Z,61.37
2023-05-01T23:58:04.902Z,60.40
